Time;durP1;ratioP1;P1;durP2;ratioP2;P2;SDS_P1;SDS_P2;PMS_P1;PMS_P2;Temp;Humidity;BMP_temperature;BMP_pressure;BME280_temperature;BME280_humidity;BME280_pressure;Samples;Min_cycle;Max_cycle;Signal;HPM_P1;HPM_P2
2023/01/11 00:01:24;;;;;;;8.47;4.40;;;1.30;99.90;;;;;;8332522;28;20244;-72
2023/01/11 00:05:25;;;;;;;6.67;3.87;;;1.20;99.90;;;;;;8333638;28;20202;-73
2023/01/11 00:09:26;;;;;;;7.97;3.57;;;1.30;99.90;;;;;;8330560;28;20193;-69
2023/01/11 00:13:28;;;;;;;6.83;4.03;;;1.20;99.90;;;;;;8329592;28;20185;-68
2023/01/11 00:17:29;;;;;;;6.93;3.90;;;1.20;99.90;;;;;;8337745;28;20186;-70
2023/01/11 00:21:30;;;;;;;6.77;3.77;;;1.20;99.90;;;;;;8332692;28;20210;-70
2023/01/11 00:25:30;;;;;;;5.40;3.70;;;1.20;99.90;;;;;;8336699;28;20181;-71
2023/01/11 00:29:31;;;;;;;7.83;4.47;;;1.10;99.90;;;;;;8337510;28;20179;-70
2023/01/11 00:33:32;;;;;;;10.47;3.83;;;1.10;99.90;;;;;;8329660;28;20257;-69
2023/01/11 00:37:33;;;;;;;8.07;3.87;;;1.00;99.90;;;;;;8331908;28;20240;-71
2023/01/11 00:50:12;;;;;;;6.60;3.80;;;0.80;99.90;;;;;;8325243;28;20200;-70
2023/01/11 00:54:13;;;;;;;7.17;4.13;;;0.70;99.90;;;;;;8329120;28;20310;-70
2023/01/11 00:58:15;;;;;;;8.97;4.53;;;0.60;99.90;;;;;;8331695;28;20190;-69
2023/01/11 01:02:15;;;;;;;5.70;3.30;;;0.50;99.90;;;;;;8328730;28;20416;-70
2023/01/11 01:06:16;;;;;;;7.60;3.30;;;0.40;99.90;;;;;;8332681;28;20186;-68
2023/01/11 01:10:18;;;;;;;5.53;3.63;;;0.20;52.30;;;;;;8332902;28;20588;-71
2023/01/11 01:14:25;;;;;;;6.83;4.13;;;0.10;95.50;;;;;;8331896;28;20191;-70
2023/01/11 01:18:26;;;;;;;9.23;3.43;;;0.10;99.90;;;;;;8328255;28;20187;-70
2023/01/11 01:22:26;;;;;;;5.30;3.23;;;0.20;1.00;;;;;;8332042;28;20257;-71
2023/01/11 01:26:27;;;;;;;8.17;3.57;;;0.30;1.00;;;;;;8322404;28;20182;-70
2023/01/11 01:30:28;;;;;;;4.80;3.47;;;0.30;1.00;;;;;;8329766;28;20293;-71
2023/01/11 01:34:29;;;;;;;7.53;3.40;;;0.40;1.00;;;;;;8328495;28;20462;-71
2023/01/11 01:38:31;;;;;;;5.70;3.20;;;0.30;1.00;;;;;;8333081;28;20194;-70
2023/01/11 01:42:32;;;;;;;5.40;3.30;;;0.30;99.90;;;;;;8323953;28;20198;-70
2023/01/11 01:46:33;;;;;;;3.97;2.70;;;0.20;99.90;;;;;;8331082;28;20186;-69
2023/01/11 01:50:40;;;;;;;7.70;3.60;;;0.10;99.90;;;;;;8325456;28;20356;-71
2023/01/11 01:54:46;;;;;;;6.97;3.07;;;0.00;99.90;;;;;;8328018;28;20181;-71
2023/01/11 01:58:51;;;;;;;6.23;3.10;;;0.00;99.90;;;;;;8325098;28;20179;-71
2023/01/11 02:02:54;;;;;;;5.57;2.80;;;-0.10;99.90;;;;;;8321793;28;20216;-70
2023/01/11 02:07:16;;;;;;;4.87;2.93;;;-0.10;99.90;;;;;;8323718;28;20182;-71
2023/01/11 02:11:30;;;;;;;6.67;2.97;;;-0.20;1.00;;;;;;8328034;28;20177;-70
2023/01/11 02:15:31;;;;;;;4.30;3.07;;;-0.20;1.00;;;;;;8330289;28;20571;-71
2023/01/11 02:19:52;;;;;;;5.00;3.10;;;-0.20;1.00;;;;;;8329737;28;20186;-70
2023/01/11 02:24:17;;;;;;;3.93;2.50;;;-0.30;1.00;;;;;;8324477;28;20233;-70
2023/01/11 02:28:33;;;;;;;4.30;2.97;;;-0.30;1.00;;;;;;8329508;28;20217;-70
2023/01/11 02:32:50;;;;;;;4.97;2.83;;;-0.40;99.90;;;;;;8324866;28;20227;-71
2023/01/11 02:37:06;;;;;;;4.57;2.80;;;-0.50;99.90;;;;;;8325890;28;20214;-71
2023/01/11 02:41:27;;;;;;;5.63;3.00;;;-0.60;1.00;;;;;;8330113;28;20216;-73
2023/01/11 02:45:28;;;;;;;6.37;2.70;;;-0.70;1.00;;;;;;8328098;28;20276;-69
2023/01/11 02:49:48;;;;;;;3.83;2.43;;;-0.80;1.00;;;;;;8333535;28;20204;-68
2023/01/11 02:53:54;;;;;;;5.03;3.20;;;-0.80;1.00;;;;;;8335754;28;20190;-69
2023/01/11 02:57:59;;;;;;;5.97;3.40;;;-0.90;1.00;;;;;;8343737;28;20196;-69
2023/01/11 03:02:01;;;;;;;10.83;3.97;;;-0.80;94.20;;;;;;8333161;28;20207;-70
2023/01/11 03:06:03;;;;;;;7.03;3.83;;;-0.70;99.90;;;;;;8335086;28;20270;-70
2023/01/11 03:10:28;;;;;;;5.03;3.10;;;-0.70;99.90;;;;;;8338147;28;20650;-69
2023/01/11 03:14:41;;;;;;;7.07;3.10;;;-0.70;99.90;;;;;;8334213;28;20186;-69
2023/01/11 03:18:53;;;;;;;5.67;3.33;;;-0.80;61.20;;;;;;8327559;28;20216;-69
2023/01/11 03:23:25;;;;;;;4.10;2.90;;;-0.90;8.80;;;;;;8331119;28;20214;-70
2023/01/11 03:27:52;;;;;;;7.27;3.77;;;-1.00;1.00;;;;;;8318062;28;20206;-70
2023/01/11 03:32:06;;;;;;;4.80;2.80;;;-1.00;4.70;;;;;;8325444;28;20194;-68
2023/01/11 03:36:18;;;;;;;9.67;3.50;;;-1.10;23.10;;;;;;8343214;28;20295;-70
2023/01/11 03:40:26;;;;;;;7.10;3.73;;;-1.10;98.70;;;;;;8326448;28;20222;-70
2023/01/11 03:44:30;;;;;;;8.63;3.97;;;-1.10;99.90;;;;;;8336326;28;20364;-69
2023/01/11 03:48:46;;;;;;;8.10;4.10;;;-1.10;99.90;;;;;;8319555;28;20186;-69
2023/01/11 03:52:47;;;;;;;6.80;3.67;;;-1.10;99.90;;;;;;8331261;28;20219;-68
2023/01/11 03:57:18;;;;;;;7.33;4.13;;;-1.10;99.90;;;;;;8327106;28;20212;-68
2023/01/11 04:01:19;;;;;;;6.10;4.07;;;-1.20;99.90;;;;;;8325369;28;20294;-68
2023/01/11 04:05:20;;;;;;;6.60;3.47;;;-1.30;73.70;;;;;;8347010;28;20200;-68
2023/01/11 04:09:21;;;;;;;8.43;4.97;;;-1.40;25.00;;;;;;8344556;28;20193;-68
2023/01/11 04:13:22;;;;;;;7.50;3.53;;;-1.50;24.90;;;;;;8330864;28;20192;-69
2023/01/11 04:17:22;;;;;;;6.00;3.47;;;-1.50;65.10;;;;;;8329136;28;20217;-68
2023/01/11 04:21:23;;;;;;;5.30;3.90;;;-1.50;99.90;;;;;;8326700;28;20205;-69
2023/01/11 04:25:24;;;;;;;7.53;3.80;;;-1.60;99.90;;;;;;8336223;28;20187;-68
2023/01/11 04:29:25;;;;;;;11.03;4.37;;;-1.50;99.90;;;;;;8331787;28;20385;-68
2023/01/11 04:33:26;;;;;;;9.97;4.40;;;-1.40;99.90;;;;;;8330910;28;20311;-69
2023/01/11 04:37:27;;;;;;;7.83;4.20;;;-1.30;99.90;;;;;;8330075;28;20199;-68
2023/01/11 04:45:47;;;;;;;7.57;4.23;;;-1.20;99.90;;;;;;8326899;28;20196;-69
2023/01/11 04:49:48;;;;;;;10.23;5.13;;;-1.10;99.90;;;;;;8329581;28;20180;-69
2023/01/11 04:53:49;;;;;;;8.07;5.20;;;-1.00;99.90;;;;;;8331962;28;20194;-69
2023/01/11 04:57:50;;;;;;;7.00;4.53;;;-1.00;99.90;;;;;;8330590;28;20193;-68
2023/01/11 05:01:50;;;;;;;6.73;4.70;;;-1.00;99.90;;;;;;8325955;28;20216;-69
2023/01/11 05:05:59;;;;;;;8.10;4.77;;;-0.90;99.90;;;;;;8336943;28;20195;-70
2023/01/11 05:10:00;;;;;;;9.17;5.50;;;-1.00;99.90;;;;;;8331335;28;20188;-69
2023/01/11 05:14:01;;;;;;;11.23;5.97;;;-1.10;99.90;;;;;;8329274;28;20195;-70
2023/01/11 05:18:02;;;;;;;7.43;4.77;;;-1.10;99.90;;;;;;8330691;28;20202;-69
2023/01/11 05:22:03;;;;;;;8.60;5.27;;;-1.20;99.90;;;;;;8332797;28;20220;-70
2023/01/11 05:26:06;;;;;;;6.10;3.77;;;-1.20;99.90;;;;;;8330552;28;20186;-68
2023/01/11 05:30:08;;;;;;;6.23;4.37;;;-1.10;99.90;;;;;;8333811;28;20186;-68
2023/01/11 05:34:12;;;;;;;6.73;3.57;;;-1.10;99.90;;;;;;8330759;28;20219;-69
2023/01/11 05:38:13;;;;;;;7.77;4.20;;;-1.10;99.90;;;;;;8323752;28;20210;-70
2023/01/11 05:42:13;;;;;;;7.30;5.53;;;-1.10;99.90;;;;;;8333917;28;20205;-69
2023/01/11 05:46:14;;;;;;;10.33;6.43;;;-1.00;99.90;;;;;;8330069;28;20263;-69
2023/01/11 05:50:15;;;;;;;8.03;4.57;;;-0.90;99.90;;;;;;8328668;28;20281;-69
2023/01/11 05:54:16;;;;;;;8.33;5.27;;;-0.80;99.90;;;;;;8329185;28;20199;-68
2023/01/11 05:58:17;;;;;;;6.63;4.50;;;-0.70;99.90;;;;;;8331074;28;20186;-69
2023/01/11 06:02:18;;;;;;;5.57;3.83;;;-0.70;99.90;;;;;;8323571;28;20225;-68
2023/01/11 06:06:20;;;;;;;7.33;3.90;;;-0.70;99.90;;;;;;8333889;28;20185;-68
2023/01/11 06:10:21;;;;;;;7.17;4.67;;;-0.70;99.90;;;;;;8332726;28;20307;-69
2023/01/11 06:14:21;;;;;;;7.77;4.30;;;-0.80;99.90;;;;;;8323510;28;20190;-68
2023/01/11 06:18:22;;;;;;;7.30;4.50;;;-0.80;99.90;;;;;;8322083;28;20379;-68
2023/01/11 06:22:23;;;;;;;5.73;3.37;;;-0.80;99.90;;;;;;8330006;28;20210;-70
2023/01/11 06:26:24;;;;;;;8.07;4.53;;;-0.70;99.90;;;;;;8324908;28;20255;-69
2023/01/11 06:30:25;;;;;;;6.03;4.07;;;-0.60;99.90;;;;;;8324965;28;20190;-68
2023/01/11 06:34:26;;;;;;;6.63;3.53;;;-0.40;99.90;;;;;;8320899;28;20233;-68
2023/01/11 06:38:26;;;;;;;8.30;3.33;;;-0.10;99.90;;;;;;8321839;28;20263;-68
2023/01/11 06:42:27;;;;;;;6.20;3.33;;;0.20;99.90;;;;;;8317734;28;20359;-69
2023/01/11 06:46:28;;;;;;;7.30;4.43;;;0.40;99.90;;;;;;8318751;28;20257;-68
2023/01/11 06:50:29;;;;;;;9.37;3.70;;;0.60;99.90;;;;;;8322118;28;20921;-69
2023/01/11 06:54:30;;;;;;;6.17;4.27;;;0.80;99.90;;;;;;8322806;28;20209;-69
2023/01/11 06:58:30;;;;;;;6.80;3.67;;;1.00;94.50;;;;;;8317587;28;20190;-69
2023/01/11 07:02:31;;;;;;;7.53;4.13;;;1.20;1.00;;;;;;8323718;28;20216;-69
2023/01/11 07:06:34;;;;;;;12.60;7.10;;;1.30;99.90;;;;;;8325553;28;20192;-72
2023/01/11 07:10:36;;;;;;;6.60;3.77;;;1.50;99.90;;;;;;8321982;28;20293;-71
2023/01/11 07:14:36;;;;;;;5.33;3.03;;;1.50;99.90;;;;;;8318170;28;20198;-71
2023/01/11 07:18:37;;;;;;;5.20;2.93;;;1.60;99.90;;;;;;8319626;28;20194;-70
2023/01/11 07:22:38;;;;;;;6.97;3.20;;;1.60;1.00;;;;;;8331041;28;20237;-70
2023/01/11 07:26:40;;;;;;;7.17;3.20;;;1.70;71.80;;;;;;8341393;28;20177;-69
2023/01/11 07:30:41;;;;;;;6.77;2.80;;;1.80;1.00;;;;;;8331334;28;20213;-71
2023/01/11 07:34:42;;;;;;;7.33;3.50;;;2.00;99.90;;;;;;8331142;28;20231;-69
2023/01/11 07:38:43;;;;;;;6.30;3.10;;;2.10;99.90;;;;;;8313673;28;20256;-72
2023/01/11 07:47:11;;;;;;;4.80;2.70;;;2.50;99.90;;;;;;8325969;28;20214;-69
2023/01/11 07:51:12;;;;;;;4.40;2.50;;;2.70;99.90;;;;;;8332897;28;20188;-70
2023/01/11 07:55:13;;;;;;;4.17;2.53;;;2.90;99.90;;;;;;8329221;28;20193;-68
2023/01/11 07:59:14;;;;;;;5.07;2.67;;;3.10;95.70;;;;;;8329261;28;20280;-70
2023/01/11 08:03:15;;;;;;;2.70;1.97;;;3.30;1.00;;;;;;8331347;28;20205;-70
2023/01/11 08:07:15;;;;;;;4.13;2.20;;;3.40;1.00;;;;;;8330104;28;20564;-69
2023/01/11 08:15:35;;;;;;;3.70;2.17;;;3.80;1.00;;;;;;8325729;28;20197;-72
2023/01/11 08:19:36;;;;;;;2.93;2.13;;;4.00;1.00;;;;;;8324639;28;20217;-69
2023/01/11 08:23:37;;;;;;;5.40;2.03;;;4.10;1.00;;;;;;8328809;28;20209;-72
2023/01/11 08:27:38;;;;;;;3.57;2.03;;;4.30;1.00;;;;;;8329350;28;20516;-70
2023/01/11 08:31:39;;;;;;;4.43;2.57;;;4.50;99.90;;;;;;8325914;28;20190;-69
2023/01/11 08:35:39;;;;;;;4.23;2.50;;;4.60;99.90;;;;;;8326720;28;20299;-71
2023/01/11 08:39:42;;;;;;;3.73;2.00;;;4.70;99.90;;;;;;8328914;28;20197;-71
2023/01/11 08:43:43;;;;;;;5.20;2.27;;;4.70;99.90;;;;;;8327688;28;20267;-72
2023/01/11 08:47:43;;;;;;;4.63;2.20;;;4.80;99.90;;;;;;8327211;28;20683;-70
2023/01/11 08:51:44;;;;;;;5.30;2.80;;;5.00;99.90;;;;;;8330217;28;20255;-72
2023/01/11 08:55:47;;;;;;;7.53;3.10;;;5.20;99.90;;;;;;8329424;28;20224;-72
2023/01/11 08:59:48;;;;;;;11.30;7.90;;;5.30;99.90;;;;;;8330796;28;20236;-69
2023/01/11 09:03:48;;;;;;;59.33;31.97;;;5.40;99.90;;;;;;8323505;28;20424;-71
2023/01/11 09:07:49;;;;;;;37.57;21.87;;;5.60;99.90;;;;;;8331199;28;20187;-73
2023/01/11 09:11:53;;;;;;;7.33;5.10;;;5.70;99.90;;;;;;8324237;28;20878;-72
2023/01/11 09:15:56;;;;;;;7.20;4.30;;;5.90;99.90;;;;;;8327894;28;20200;-72
2023/01/11 09:19:56;;;;;;;6.43;3.43;;;6.10;99.90;;;;;;8326948;28;20373;-72
2023/01/11 09:23:57;;;;;;;9.50;6.77;;;6.30;99.90;;;;;;8331461;28;20210;-72
2023/01/11 09:27:59;;;;;;;8.00;6.23;;;6.50;99.90;;;;;;8324538;28;20275;-72
2023/01/11 09:32:00;;;;;;;6.70;4.30;;;6.60;99.90;;;;;;8325364;28;20185;-71
2023/01/11 09:36:01;;;;;;;18.73;11.07;;;6.70;99.90;;;;;;8326460;28;20208;-71
2023/01/11 09:40:02;;;;;;;41.87;15.07;;;6.90;99.90;;;;;;8330222;28;20214;-71
2023/01/11 09:44:14;;;;;;;106.17;33.23;;;7.10;99.90;;;;;;8333924;28;20210;-71
2023/01/11 09:48:27;;;;;;;30.43;11.93;;;7.20;99.90;;;;;;8325080;28;20190;-70
2023/01/11 09:52:35;;;;;;;22.23;9.77;;;7.30;99.90;;;;;;8332721;28;20204;-71
2023/01/11 09:56:48;;;;;;;51.70;20.80;;;7.40;99.90;;;;;;8322034;28;20197;-72
2023/01/11 10:01:11;;;;;;;58.90;21.40;;;7.40;99.90;;;;;;8326351;28;20273;-72
2023/01/11 10:05:30;;;;;;;28.70;12.43;;;7.40;99.90;;;;;;8321052;28;20197;-74
2023/01/11 10:09:40;;;;;;;72.20;31.00;;;7.20;99.90;;;;;;8327592;28;20194;-75
2023/01/11 10:14:10;;;;;;;56.67;19.13;;;7.10;99.90;;;;;;8320320;28;20182;-71
2023/01/11 10:18:30;;;;;;;46.07;16.17;;;7.10;99.90;;;;;;8326902;28;20186;-72
2023/01/11 10:22:40;;;;;;;53.20;23.90;;;7.10;99.90;;;;;;8324394;28;20225;-72
2023/01/11 10:26:41;;;;;;;24.90;11.63;;;7.20;99.90;;;;;;8325862;28;20182;-74
2023/01/11 10:31:00;;;;;;;22.27;12.73;;;7.30;99.90;;;;;;8332621;28;20189;-72
2023/01/11 10:44:21;;;;;;;6.13;4.53;;;7.70;99.90;;;;;;8327953;28;20221;-72
2023/01/11 10:48:37;;;;;;;6.33;4.77;;;7.80;99.90;;;;;;8322736;28;20182;-74
2023/01/11 10:52:53;;;;;;;6.07;3.00;;;8.00;99.90;;;;;;8330897;28;20202;-73
2023/01/11 10:56:53;;;;;;;5.50;4.00;;;8.20;99.90;;;;;;8330502;28;20186;-74
2023/01/11 11:01:09;;;;;;;4.67;3.00;;;8.30;99.90;;;;;;8333007;28;20182;-73
2023/01/11 11:05:28;;;;;;;3.27;2.10;;;8.50;99.90;;;;;;8329003;28;20220;-72
2023/01/11 11:09:45;;;;;;;62.73;20.90;;;8.50;99.90;;;;;;8321009;28;20198;-70
2023/01/11 11:14:11;;;;;;;13.00;5.13;;;8.60;99.90;;;;;;8334414;28;20775;-72
2023/01/11 11:18:12;;;;;;;4.97;2.70;;;8.70;99.90;;;;;;8332184;28;20200;-72
2023/01/11 11:22:13;;;;;;;12.00;7.00;;;8.70;99.90;;;;;;8328399;28;20201;-72
2023/01/11 11:26:14;;;;;;;3.23;2.27;;;8.90;99.90;;;;;;8333871;28;20181;-72
2023/01/11 11:30:37;;;;;;;3.00;1.73;;;8.90;99.90;;;;;;8327099;28;20581;-73
2023/01/11 11:34:51;;;;;;;3.43;2.17;;;9.00;99.90;;;;;;8328702;28;20299;-70
2023/01/11 11:39:08;;;;;;;3.07;2.00;;;9.10;99.90;;;;;;8337563;28;20284;-71
2023/01/11 11:43:15;;;;;;;3.37;2.10;;;9.10;99.90;;;;;;8332411;28;20196;-73
2023/01/11 11:47:16;;;;;;;3.37;2.40;;;9.00;99.90;;;;;;8326031;28;20214;-73
2023/01/11 11:51:22;;;;;;;2.90;1.80;;;8.90;99.90;;;;;;8333631;28;20191;-72
2023/01/11 11:55:27;;;;;;;3.73;2.07;;;8.90;99.90;;;;;;8322292;28;20212;-71
2023/01/11 11:59:31;;;;;;;2.00;1.73;;;8.90;99.90;;;;;;8342981;28;20196;-72
2023/01/11 12:03:33;;;;;;;2.60;1.40;;;9.00;99.90;;;;;;8324011;28;20214;-72
2023/01/11 12:07:36;;;;;;;1.67;1.20;;;8.90;99.90;;;;;;8326980;28;20268;-71
2023/01/11 12:11:40;;;;;;;2.37;1.20;;;9.00;99.90;;;;;;8326611;28;20195;-71
2023/01/11 12:15:58;;;;;;;3.23;2.03;;;8.90;99.90;;;;;;8326022;28;20187;-70
2023/01/11 12:19:59;;;;;;;1.73;1.40;;;8.90;99.90;;;;;;8319267;28;20198;-71
2023/01/11 12:24:08;;;;;;;1.40;1.03;;;8.90;99.90;;;;;;8330690;28;20663;-70
2023/01/11 12:28:27;;;;;;;2.03;1.40;;;9.00;99.90;;;;;;8322828;28;20233;-71
2023/01/11 12:33:01;;;;;;;1.57;1.20;;;9.10;99.90;;;;;;8333184;28;20202;-71
2023/01/11 12:37:10;;;;;;;2.03;1.17;;;9.10;99.90;;;;;;8329448;28;20287;-71
2023/01/11 12:41:42;;;;;;;2.33;1.50;;;9.20;99.90;;;;;;8320243;28;20220;-71
2023/01/11 12:46:06;;;;;;;2.47;1.40;;;9.20;99.90;;;;;;8332128;28;20266;-70
2023/01/11 12:50:30;;;;;;;2.50;1.70;;;9.30;99.90;;;;;;8326293;28;20245;-70
2023/01/11 12:54:46;;;;;;;2.03;1.50;;;9.30;99.90;;;;;;8322043;28;20180;-70
2023/01/11 12:59:04;;;;;;;4.20;1.50;;;9.20;99.90;;;;;;8325315;28;20621;-71
2023/01/11 13:03:35;;;;;;;1.93;1.70;;;9.20;99.90;;;;;;8329006;28;20195;-70
2023/01/11 13:07:57;;;;;;;2.20;1.60;;;9.10;99.90;;;;;;8328822;28;20499;-70
2023/01/11 13:12:16;;;;;;;2.83;1.67;;;9.10;99.90;;;;;;8323166;28;20289;-70
2023/01/11 13:16:27;;;;;;;3.37;1.90;;;9.00;99.90;;;;;;8328054;28;20184;-71
2023/01/11 13:20:46;;;;;;;2.67;1.63;;;8.90;99.90;;;;;;8328718;28;20216;-70
2023/01/11 13:24:50;;;;;;;2.77;1.63;;;8.90;99.90;;;;;;8320624;28;20214;-71
2023/01/11 13:29:24;;;;;;;3.30;1.40;;;8.90;99.90;;;;;;8346354;28;20260;-71
2023/01/11 13:33:29;;;;;;;2.40;1.70;;;8.90;99.90;;;;;;8325580;28;20198;-70
2023/01/11 13:37:33;;;;;;;2.30;1.70;;;8.90;99.90;;;;;;8322695;28;20297;-71
2023/01/11 13:41:39;;;;;;;2.63;1.80;;;9.00;99.90;;;;;;8323833;28;20214;-71
2023/01/11 13:45:49;;;;;;;3.37;1.60;;;9.00;99.90;;;;;;8328007;28;20197;-70
2023/01/11 13:50:21;;;;;;;2.77;2.10;;;8.90;99.90;;;;;;8323124;28;20245;-72
2023/01/11 13:54:38;;;;;;;2.57;1.60;;;8.80;99.90;;;;;;8327131;28;20197;-70
2023/01/11 13:58:47;;;;;;;2.60;1.70;;;8.70;99.90;;;;;;8328628;28;20222;-71
2023/01/11 14:03:05;;;;;;;2.57;1.90;;;8.70;99.90;;;;;;8326980;28;21375;-71
2023/01/11 14:07:12;;;;;;;2.97;1.67;;;8.70;99.90;;;;;;8332741;28;20174;-71
2023/01/11 14:11:24;;;;;;;2.60;1.63;;;8.60;99.90;;;;;;8320822;28;20186;-71
2023/01/11 14:15:25;;;;;;;3.30;1.73;;;8.60;99.90;;;;;;8333323;28;20201;-71
2023/01/11 14:19:41;;;;;;;2.43;1.67;;;8.60;99.90;;;;;;8329778;28;20171;-71
2023/01/11 14:23:51;;;;;;;2.97;1.90;;;8.50;99.90;;;;;;8331415;28;20296;-70
2023/01/11 14:28:11;;;;;;;2.53;1.80;;;8.50;99.90;;;;;;8325356;28;20181;-71
2023/01/11 14:32:31;;;;;;;3.27;1.80;;;8.50;99.90;;;;;;8330052;28;20241;-70
2023/01/11 14:37:06;;;;;;;4.50;1.60;;;8.50;99.90;;;;;;8332915;28;20241;-71
2023/01/11 14:41:25;;;;;;;2.40;1.83;;;8.40;99.90;;;;;;8334151;28;20182;-70
2023/01/11 14:45:57;;;;;;;3.27;1.73;;;8.40;99.90;;;;;;8326876;28;20217;-70
2023/01/11 14:50:11;;;;;;;2.90;1.97;;;8.40;99.90;;;;;;8338237;28;20186;-71
2023/01/11 14:54:22;;;;;;;3.43;1.90;;;8.30;99.90;;;;;;8326004;28;20417;-71
2023/01/11 14:58:27;;;;;;;4.60;2.07;;;8.30;99.90;;;;;;8330760;28;20254;-71
2023/01/11 15:02:28;;;;;;;3.10;1.87;;;8.30;99.90;;;;;;8332855;28;20269;-71
2023/01/11 15:06:30;;;;;;;2.73;1.60;;;8.20;1.00;;;;;;8332385;28;20186;-71
2023/01/11 15:10:31;;;;;;;1.87;1.53;;;8.20;1.00;;;;;;8326493;28;20186;-71
2023/01/11 15:14:33;;;;;;;4.13;1.77;;;8.30;1.00;;;;;;8331004;28;20213;-72
2023/01/11 15:18:43;;;;;;;3.20;1.77;;;8.30;1.00;;;;;;8328153;28;20273;-70
2023/01/11 15:22:45;;;;;;;5.00;1.80;;;8.40;99.90;;;;;;8334984;28;20217;-71
2023/01/11 15:26:48;;;;;;;1.90;1.80;;;8.40;99.90;;;;;;8330856;28;20193;-70
2023/01/11 15:30:52;;;;;;;3.13;2.13;;;8.30;99.90;;;;;;8326510;28;20183;-70
2023/01/11 15:35:14;;;;;;;2.80;2.07;;;8.40;99.90;;;;;;8328504;28;20209;-70
2023/01/11 15:39:16;;;;;;;2.60;1.93;;;8.40;99.90;;;;;;8322295;28;20208;-67
2023/01/11 15:43:48;;;;;;;2.73;1.90;;;8.40;99.90;;;;;;8326601;28;20289;-67
2023/01/11 15:47:59;;;;;;;2.40;1.83;;;8.30;99.90;;;;;;8322822;28;20216;-68
2023/01/11 15:52:19;;;;;;;3.53;1.90;;;8.30;99.90;;;;;;8329267;28;20197;-67
2023/01/11 15:56:33;;;;;;;4.00;2.27;;;8.30;1.00;;;;;;8329577;28;20190;-67
2023/01/11 16:01:06;;;;;;;2.70;1.80;;;8.30;1.00;;;;;;8322788;28;20252;-67
2023/01/11 16:05:28;;;;;;;3.00;2.00;;;8.30;1.00;;;;;;8321190;28;20238;-67
2023/01/11 16:09:50;;;;;;;4.70;2.00;;;8.20;1.00;;;;;;8321240;28;20309;-72
2023/01/11 16:14:26;;;;;;;3.13;1.70;;;8.20;1.00;;;;;;8329839;28;20286;-66
2023/01/11 16:18:36;;;;;;;6.83;2.17;;;8.30;1.00;;;;;;8316873;28;20252;-67
2023/01/11 16:22:38;;;;;;;4.90;2.13;;;8.30;1.00;;;;;;8333192;28;20217;-67
2023/01/11 16:26:40;;;;;;;3.83;2.07;;;8.20;1.00;;;;;;8334741;28;20193;-67
2023/01/11 16:30:42;;;;;;;4.53;2.20;;;8.30;1.00;;;;;;8334249;28;20187;-68
2023/01/11 16:34:45;;;;;;;3.33;2.27;;;8.20;1.00;;;;;;8328604;28;20202;-67
2023/01/11 16:38:53;;;;;;;2.63;2.10;;;8.20;1.00;;;;;;8339146;28;20198;-67
2023/01/11 16:42:58;;;;;;;3.73;2.63;;;8.20;1.00;;;;;;8324149;28;20313;-67
2023/01/11 16:47:13;;;;;;;3.73;2.57;;;8.20;1.00;;;;;;8333347;28;20480;-67
2023/01/11 16:51:15;;;;;;;3.73;2.70;;;8.10;1.00;;;;;;8326513;28;20269;-67
2023/01/11 16:55:31;;;;;;;3.37;2.40;;;8.10;1.00;;;;;;8324217;28;20733;-66
2023/01/11 16:59:33;;;;;;;4.03;3.00;;;8.20;1.00;;;;;;8330697;28;20294;-68
2023/01/11 17:03:56;;;;;;;3.73;2.70;;;8.20;1.00;;;;;;8332845;28;20524;-66
2023/01/11 17:07:56;;;;;;;5.27;2.83;;;8.20;1.00;;;;;;8323539;28;20287;-66
2023/01/11 17:11:57;;;;;;;4.20;2.90;;;8.20;1.00;;;;;;8327683;28;20559;-66
2023/01/11 17:16:09;;;;;;;6.93;3.10;;;8.20;1.00;;;;;;8324907;28;20190;-66
2023/01/11 17:20:22;;;;;;;10.17;5.20;;;8.30;1.00;;;;;;8322589;28;20186;-67
2023/01/11 17:24:24;;;;;;;6.53;4.47;;;8.40;1.00;;;;;;8325723;28;20217;-67
2023/01/11 17:28:25;;;;;;;13.50;8.80;;;8.30;56.80;;;;;;8324902;28;20182;-67
2023/01/11 17:32:41;;;;;;;8.67;4.93;;;8.30;99.90;;;;;;8321738;28;20385;-71
2023/01/11 17:36:43;;;;;;;7.67;5.37;;;8.30;99.90;;;;;;8321651;28;20213;-73
2023/01/11 17:40:44;;;;;;;4.70;3.30;;;8.20;99.90;;;;;;8330113;28;20220;-69
2023/01/11 17:49:20;;;;;;;6.83;4.43;;;8.10;21.20;;;;;;8333788;28;20319;-71
2023/01/11 17:53:31;;;;;;;6.80;4.30;;;8.00;99.90;;;;;;8335266;28;20202;-74
2023/01/11 17:57:32;;;;;;;14.77;8.17;;;7.90;99.90;;;;;;8329773;28;20293;-72
2023/01/11 18:01:33;;;;;;;8.07;5.17;;;7.90;1.00;;;;;;8334520;28;20193;-72
2023/01/11 18:05:34;;;;;;;11.17;6.97;;;7.80;99.90;;;;;;8329241;28;20317;-71
2023/01/11 18:09:42;;;;;;;8.13;4.93;;;7.80;99.90;;;;;;8330593;28;20205;-73
2023/01/11 18:13:43;;;;;;;7.23;4.93;;;7.80;1.00;;;;;;8334787;28;20281;-71
2023/01/11 18:17:44;;;;;;;5.87;4.37;;;7.70;99.90;;;;;;8329804;28;20267;-73
2023/01/11 18:21:53;;;;;;;5.70;4.10;;;7.70;1.00;;;;;;8326417;28;20202;-72
2023/01/11 18:26:25;;;;;;;8.13;5.10;;;7.60;99.90;;;;;;8338555;28;20198;-72
2023/01/11 18:30:31;;;;;;;8.53;4.70;;;7.60;99.90;;;;;;8328259;28;20192;-72
2023/01/11 18:34:32;;;;;;;5.47;3.97;;;7.60;1.00;;;;;;8326489;28;20268;-74
2023/01/11 18:38:34;;;;;;;4.97;3.90;;;7.60;1.00;;;;;;8324234;28;20201;-72
2023/01/11 18:42:35;;;;;;;5.50;4.00;;;7.50;1.00;;;;;;8330423;28;20438;-72
2023/01/11 18:46:36;;;;;;;6.60;3.70;;;7.50;99.90;;;;;;8340424;28;20198;-71
2023/01/11 18:50:39;;;;;;;6.63;3.60;;;7.50;99.90;;;;;;8328719;28;20217;-73
2023/01/11 18:54:41;;;;;;;6.07;3.97;;;7.50;99.90;;;;;;8328841;28;20191;-70
2023/01/11 18:58:42;;;;;;;5.33;4.13;;;7.50;50.70;;;;;;8330828;28;20225;-71
2023/01/11 19:02:44;;;;;;;4.83;3.60;;;7.40;92.10;;;;;;8327438;28;20206;-74
2023/01/11 19:06:45;;;;;;;4.70;3.77;;;7.40;1.00;;;;;;8326619;28;20247;-71
2023/01/11 19:10:47;;;;;;;4.47;3.77;;;7.40;99.90;;;;;;8328865;28;20190;-73
2023/01/11 19:14:47;;;;;;;5.17;3.90;;;7.40;95.60;;;;;;8333652;28;20758;-73
2023/01/11 19:18:48;;;;;;;6.37;4.83;;;7.30;99.90;;;;;;8339237;28;20216;-75
2023/01/11 19:22:49;;;;;;;6.93;4.30;;;7.30;1.00;;;;;;8335478;28;20252;-74
2023/01/11 19:26:50;;;;;;;5.37;3.93;;;7.30;99.90;;;;;;8331277;28;20191;-75
2023/01/11 19:30:51;;;;;;;6.00;4.27;;;7.30;99.90;;;;;;8334740;28;20186;-73
2023/01/11 19:34:56;;;;;;;6.10;4.20;;;7.30;99.90;;;;;;8344017;28;20209;-71
2023/01/11 19:38:57;;;;;;;7.50;4.47;;;7.20;99.90;;;;;;8351210;28;20194;-72
2023/01/11 19:42:58;;;;;;;6.23;4.60;;;7.30;99.90;;;;;;8338247;28;20301;-72
2023/01/11 19:47:01;;;;;;;6.97;4.40;;;7.20;99.90;;;;;;8338303;28;20181;-74
2023/01/11 19:51:03;;;;;;;6.93;4.73;;;7.20;99.90;;;;;;8342241;28;20602;-72
2023/01/11 19:55:05;;;;;;;6.90;4.73;;;7.20;1.00;;;;;;8338477;28;20191;-71
2023/01/11 19:59:06;;;;;;;5.87;4.43;;;7.20;1.00;;;;;;8339435;28;20241;-70
2023/01/11 20:03:07;;;;;;;7.57;5.00;;;7.20;1.00;;;;;;8331296;28;20225;-75
2023/01/11 20:07:10;;;;;;;6.60;5.23;;;7.20;1.00;;;;;;8334244;28;20225;-72
2023/01/11 20:11:13;;;;;;;7.33;5.57;;;7.20;19.40;;;;;;8335261;28;20182;-71
2023/01/11 20:15:15;;;;;;;5.73;4.53;;;7.20;49.00;;;;;;8344039;28;20229;-70
2023/01/11 20:19:16;;;;;;;6.37;4.63;;;7.20;80.30;;;;;;8333642;28;20209;-70
2023/01/11 20:23:17;;;;;;;7.27;5.00;;;7.20;92.60;;;;;;8340812;28;20206;-69
2023/01/11 20:27:18;;;;;;;6.83;4.77;;;7.20;99.90;;;;;;8331518;28;20186;-69
2023/01/11 20:31:20;;;;;;;6.80;5.43;;;7.20;99.90;;;;;;8331636;28;20189;-70
2023/01/11 20:35:21;;;;;;;8.70;5.47;;;7.20;99.90;;;;;;8339685;28;20252;-71
2023/01/11 20:39:22;;;;;;;7.17;5.43;;;7.20;99.90;;;;;;8331760;28;20225;-70
2023/01/11 20:43:23;;;;;;;8.30;5.70;;;7.20;99.90;;;;;;8336293;28;20269;-70
2023/01/11 20:47:25;;;;;;;7.73;5.33;;;7.20;99.90;;;;;;8340447;28;20174;-71
2023/01/11 20:51:27;;;;;;;9.60;5.70;;;7.20;99.90;;;;;;8342063;28;20184;-71
2023/01/11 20:55:28;;;;;;;7.07;5.67;;;7.20;99.90;;;;;;8340782;28;20185;-72
2023/01/11 20:59:31;;;;;;;7.63;6.00;;;7.20;99.90;;;;;;8337441;28;20198;-70
2023/01/11 21:03:32;;;;;;;6.53;5.83;;;7.20;99.90;;;;;;8334878;28;20221;-67
2023/01/11 21:07:33;;;;;;;6.93;5.90;;;7.20;99.90;;;;;;8327603;28;20185;-67
2023/01/11 21:11:34;;;;;;;9.50;6.53;;;7.30;99.90;;;;;;8327812;28;20256;-67
2023/01/11 21:15:35;;;;;;;7.33;5.73;;;7.20;99.90;;;;;;8321985;28;20182;-67
2023/01/11 21:19:36;;;;;;;7.23;6.07;;;7.30;99.90;;;;;;8329070;28;20213;-68
2023/01/11 21:23:37;;;;;;;8.10;5.87;;;7.20;99.90;;;;;;8322013;28;20218;-72
2023/01/11 21:27:38;;;;;;;7.07;5.93;;;7.20;99.90;;;;;;8321366;28;20197;-67
2023/01/11 21:31:39;;;;;;;7.53;6.10;;;7.20;99.90;;;;;;8322551;28;20213;-67
2023/01/11 21:35:40;;;;;;;8.77;6.40;;;7.20;99.90;;;;;;8329227;28;20210;-71
2023/01/11 21:39:41;;;;;;;7.40;5.53;;;7.20;99.90;;;;;;8323951;28;20197;-71
2023/01/11 21:43:43;;;;;;;8.27;6.00;;;7.20;99.90;;;;;;8329904;28;20264;-71
2023/01/11 21:47:44;;;;;;;8.67;6.23;;;7.20;99.90;;;;;;8330778;28;21618;-71
2023/01/11 21:51:47;;;;;;;7.50;6.20;;;7.20;99.90;;;;;;8324486;28;20185;-71
2023/01/11 21:55:48;;;;;;;7.37;6.17;;;7.20;99.90;;;;;;8331952;28;20178;-70
2023/01/11 21:59:49;;;;;;;6.93;6.23;;;7.20;99.90;;;;;;8332821;28;20186;-72
2023/01/11 22:03:50;;;;;;;8.73;6.97;;;7.20;99.90;;;;;;8338763;28;20210;-70
2023/01/11 22:07:50;;;;;;;8.77;6.70;;;7.20;99.90;;;;;;8327644;28;20205;-71
2023/01/11 22:11:52;;;;;;;7.60;6.43;;;7.10;99.90;;;;;;8330012;28;20178;-72